Station: Macquarie Island  

  Atmospheric Gas Attenuation - ITU Rec 676-11   ----------------- dB/100km -----------------
Date Time Temp RH % AH g/m3 Dew Point Wind Direction Speed kph Gust kph Barometer mB Rainfall Since 9am 24GHz 47GHz 76GHz 122GHz 134GHz 241GHz
06/09 18:00 3.2 73 4.4 -1.2 20 26 1004.4 0.2 11.0 21.7 27.3 71.1 53.5 179.6
06/09 17:50 3.1 71 4.25 -1.6 22 30 1004.4 0.2 10.7 21.5 26.8 69.7 51.6 173.2
06/09 17:40 3.1 72 4.31 -1.4 20 26 1004.4 0.2 10.8 21.6 27.0 70.3 52.4 175.8
06/09 17:30 3.1 73 4.37 -1.3 26 32 1004.3 0.2 10.9 21.7 27.2 70.9 53.2 178.5
06/09 17:20 3 76 4.52 -0.8 24 30 1004.3 0.2 11.3 21.9 27.8 72.5 55.1 185.5
06/09 17:10 2.9 76 4.49 -0.9 28 37 1004.5 0.2 11.2 21.9 27.8 72.3 54.8 184.4
06/09 17:00 3.1 74 4.43 -1.1 28 33 1004.4 0.2 11.1 21.8 27.5 71.5 53.9 181.2
06/09 16:50 3.1 72 4.31 -1.4 28 32 1004.4 0.2 10.8 21.6 27.0 70.3 52.4 175.8
06/09 16:40 3 70 4.17 -1.9 24 32 1004.5 0.2 10.5 21.4 26.5 68.9 50.7 169.8
06/09 16:30 2.7 75 4.37 -1.3 24 30 1004.5 0.2 10.9 21.8 27.4 71.3 53.4 179.4
06/09 16:20 2.9 79 4.67 -0.4 24 32 1004.4 0.2 11.6 22.2 28.5 74.2 57.2 192.5
06/09 16:10 2.7 81 4.72 -0.2 28 37 1004.5 0.2 11.7 22.3 28.7 74.9 58.0 195.3
06/09 16:00 2.7 82 4.78 -0.1 26 32 1004.5 0.2 11.8 22.4 29.0 75.6 58.7 198.1
06/09 15:50 2.5 81 4.66 -0.4 24 30 1004.6 0.2 11.6 22.3 28.6 74.5 57.3 193.1
06/09 15:40 2.6 80 4.63 -0.5 26 37 1004.7 0.2 11.5 22.2 28.4 74.1 56.9 191.5
06/09 15:30 3.1 80 4.79 0 22 26 1004.7 0 11.8 22.3 28.9 75.3 58.6 197.6
06/09 15:20 2.6 82 4.75 -0.2 26 32 1004.7 0 11.8 22.4 28.9 75.4 58.4 197.0
06/09 15:10 2.4 84 4.8 0 30 37 1004.7 0 11.9 22.5 29.2 76.1 59.2 199.8
06/09 15:00 3 79 4.7 -0.3 28 39 1004.5 0 11.6 22.2 28.5 74.4 57.5 193.7
06/09 14:50 3.1 73 4.37 -1.3 24 30 1004.5 0 10.9 21.7 27.2 70.9 53.2 178.5
06/09 14:40 3.2 73 4.4 -1.2 24 32 1004.5 0 11.0 21.7 27.3 71.1 53.5 179.7
06/09 14:30 4 73 4.65 -0.4 24 28 1004.4 0 11.5 21.9 28.0 73.0 56.1 189.0
06/09 14:20 4.1 73 4.68 -0.3 24 30 1004.4 0 11.6 21.9 28.1 73.2 56.4 190.1
06/09 14:10 4 72 4.58 -0.6 24 30 1004.4 0 11.3 21.8 27.7 72.2 55.2 185.9
06/09 14:00 3.6 75 4.65 -0.4 20 28 1004.4 0 11.5 22.0 28.1 73.3 56.4 189.9
06/09 13:50 3.1 75 4.49 -0.9 20 26 1004.2 0 11.2 21.9 27.7 72.1 54.7 183.9
06/09 13:40 3.4 73 4.46 -1 20 28 1004.3 0 11.1 21.7 27.5 71.5 54.1 181.9
06/09 13:30 3.7 74 4.62 -0.5 20 30 1004.3 0 11.4 21.9 28.0 72.9 55.9 188.3
06/09 13:20 3.6 75 4.65 -0.4 26 35 1004.4 0 11.5 22.0 28.1 73.3 56.4 189.9
06/09 13:10 3.7 69 4.3 -1.4 20 26 1004.3 0 10.8 21.4 26.8 69.6 51.9 174.1
06/09 13:00 4.4 69 4.51 -0.8 20 30 1004.3 0 11.2 21.6 27.3 71.2 54.0 181.8
06/09 12:50 4 67 4.26 -1.6 22 28 1004.2 0 10.7 21.3 26.5 69.0 51.2 171.6
06/09 12:40 3.9 71 4.49 -0.9 19 24 1004.2 0 11.2 21.7 27.4 71.4 54.1 182.0
06/09 12:30 3.2 72 4.34 -1.3 19 24 1004.3 0 10.9 21.6 27.1 70.5 52.7 176.9
06/09 12:20 3.3 72 4.37 -1.3 22 26 1004.3 0 10.9 21.6 27.2 70.7 53.0 178.1
06/09 12:10 3.3 69 4.19 -1.8 22 28 1004.3 0 10.5 21.3 26.5 68.9 50.7 170.0
06/09 12:00 3.6 72 4.46 -1 20 26 1004.2 0 11.1 21.7 27.4 71.4 54.0 181.4
06/09 11:50 3.7 72 4.49 -0.9 24 35 1004.3 0 11.2 21.7 27.5 71.6 54.3 182.5
06/09 11:40 4.2 66 4.26 -1.6 24 30 1004.4 0 10.7 21.2 26.4 68.8 51.0 171.2
06/09 11:30 4.4 64 4.18 -1.8 24 30 1004.2 0 10.5 21.1 26.1 67.8 49.9 167.3
06/09 11:20 4.3 62 4.02 -2.3 24 28 1004.2 0 10.1 20.8 25.5 66.3 48.0 160.5
06/09 11:10 4.5 63 4.14 -1.9 24 30 1004.1 0 10.4 21.0 25.9 67.3 49.3 165.3
06/09 11:00 4.5 61 4.01 -2.4 22 30 1004.1 0 10.1 20.8 25.4 66.0 47.7 159.7
06/09 10:50 4.7 66 4.4 -1.1 17 26 1004 0 10.9 21.3 26.8 69.7 52.4 176.2
06/09 10:40 4.5 69 4.54 -0.7 19 24 1003.9 0 11.2 21.6 27.4 71.3 54.3 182.8
06/09 10:30 4.1 69 4.42 -1.1 19 26 1003.9 0 11.0 21.5 27.1 70.5 53.1 178.4
06/09 10:20 3.4 69 4.22 -1.7 20 26 1003.8 0 10.6 21.3 26.5 69.0 51.0 171.1
06/09 10:10 3.1 66 3.95 -2.6 22 28 1003.7 0 10.0 21.0 25.6 66.6 47.8 159.8
06/09 10:00 3.4 66 4.03 -2.3 19 26 1003.6 0 10.2 21.0 25.8 67.1 48.6 162.7
06/09 09:50 3.5 66 4.06 -2.2 19 33 1003.4 0 10.2 21.1 25.9 67.3 48.9 163.8
06/09 09:40 3.4 67 4.1 -2.1 13 22 1003.3 0 10.3 21.1 26.1 67.8 49.5 165.7
06/09 09:30 2.3 71 4.03 -2.4 13 24 1003.4 0 10.2 21.3 26.1 68.0 49.3 164.9
06/09 09:20 1.6 73 3.95 -2.7 11 22 1003.4 0 10.1 21.3 26.1 67.8 48.7 162.8
06/09 09:10 1.6 75 4.06 -2.3 20 35 1003.4 0 10.3 21.5 26.5 68.9 50.1 167.7
06/09 09:00 2.2 72 4.06 -2.3 24 39 1003.3 0 10.3 21.4 26.3 68.4 49.8 166.4
06/09 08:50 2.5 63 3.63 -3.8 20 33 1003.1 0.2 9.3 20.6 24.6 63.8 44.2 146.8
06/09 08:40 2.7 63 3.67 -3.6 19 32 1002.9 0.2 9.4 20.6 24.6 64.0 44.5 148.2
06/09 08:30 2.4 64 3.66 -3.7 22 43 1002.8 0.2 9.4 20.7 24.7 64.1 44.6 148.3
06/09 08:20 2.4 67 3.83 -3.1 15 37 1002.6 0.2 9.8 20.9 25.3 65.8 46.7 155.7
06/09 08:10 2.5 63 3.63 -3.8 17 24 1002.5 0.2 9.3 20.6 24.5 63.7 44.1 146.8
06/09 08:00 2.4 67 3.83 -3.1 15 26 1002.3 0.2 9.8 20.9 25.3 65.8 46.7 155.7
06/09 07:50 2.3 69 3.92 -2.8 15 24 1002.2 0.2 10.0 21.1 25.7 66.8 47.9 159.8
06/09 07:40 1.9 72 3.98 -2.6 11 19 1002.1 0.2 10.1 21.3 26.0 67.8 48.9 163.3
06/09 07:30 1.8 74 4.06 -2.3 15 28 1002.1 0.2 10.3 21.4 26.4 68.7 49.9 167.1
06/09 07:20 2 73 4.06 -2.3 17 28 1002 0.2 10.3 21.4 26.3 68.5 49.8 166.7
06/09 07:10 1.9 72 3.98 -2.6 19 24 1001.6 0.2 10.1 21.2 26.0 67.7 48.8 163.2
06/09 07:00 2.2 73 4.12 -2.1 15 26 1001.6 0.2 10.4 21.4 26.5 68.9 50.4 168.9
06/09 06:50 2 71 3.95 -2.7 17 32 1001.3 0.2 10.1 21.2 25.9 67.3 48.4 161.6
06/09 06:40 1.8 71 3.9 -2.9 15 24 1001.2 0.2 9.9 21.1 25.7 66.9 47.9 159.8
06/09 06:30 2 67 3.73 -3.5 19 30 1000.9 0.2 9.6 20.8 25.0 65.0 45.6 151.9
06/09 06:20 1.9 67 3.7 -3.6 22 33 1000.8 0.2 9.5 20.8 24.9 64.8 45.3 150.7
06/09 06:10 1.7 68 3.71 -3.6 19 37 1000.7 0.2 9.5 20.8 25.0 65.1 45.5 151.5
06/09 06:00 1.6 70 3.79 -3.3 20 37 1000.6 0.2 9.7 21.0 25.4 65.9 46.6 155.2
06/09 05:50 1.7 71 3.87 -3 24 39 1000.5 0.2 9.9 21.1 25.6 66.7 47.5 158.6
06/09 05:40 1.9 68 3.76 -3.4 24 39 1000.2 0.2 9.6 20.9 25.1 65.4 46.0 153.3
06/09 05:30 1.7 70 3.82 -3.2 24 39 1000.3 0.2 9.8 21.0 25.4 66.1 46.9 156.3
06/09 05:20 2.2 68 3.83 -3.1 24 44 1000.1 0.2 9.8 20.9 25.3 65.8 46.7 155.8
06/09 05:10 2.1 64 3.58 -4 26 46 999.8 0.2 9.2 20.5 24.4 63.3 43.6 144.9
06/09 05:00 2.1 68 3.81 -3.2 32 56 999.8 0.2 9.7 20.9 25.2 65.7 46.5 155.0
06/09 04:50 2 69 3.84 -3.1 26 43 999.8 0.2 9.8 20.9 25.4 66.0 46.9 156.5
06/09 04:40 1.9 69 3.81 -3.2 20 41 999.7 0.2 9.7 20.9 25.3 65.8 46.6 155.4
06/09 04:30 2 69 3.84 -3.1 33 50 999.4 0.2 9.8 20.9 25.4 66.0 46.9 156.5
06/09 04:20 1.8 73 4.01 -2.5 28 57 999.2 0.2 10.2 21.2 26.1 67.9 49.2 164.4
06/09 04:10 2.2 71 4 -2.5 32 54 999.1 0.2 10.1 21.1 25.9 67.5 48.8 163.1
06/09 04:00 2.1 68 3.81 -3.2 37 52 999.1 0.2 9.7 20.9 25.2 65.6 46.5 154.9
06/09 03:50 2.2 67 3.78 -3.3 30 44 998.6 0.2 9.7 20.8 25.1 65.2 46.0 153.3
06/09 03:40 1.9 67 3.7 -3.6 28 46 998.5 0.2 9.5 20.7 24.8 64.6 45.2 150.4
06/09 03:30 1.8 70 3.84 -3.1 28 44 998.6 0.2 9.8 20.9 25.4 66.1 47.0 156.8
06/09 03:20 1.6 75 4.06 -2.3 30 43 998.4 0.2 10.3 21.3 26.3 68.5 49.9 166.9
06/09 03:10 1.3 75 3.98 -2.6 24 39 998.3 0.2 10.1 21.3 26.1 68.0 49.1 164.0
06/09 03:00 2 74 4.12 -2.1 33 54 998.2 0.2 10.4 21.3 26.4 68.8 50.4 168.8
06/09 02:50 2.1 66 3.7 -3.6 33 50 997.9 0.2 9.5 20.6 24.8 64.4 45.0 149.9
06/09 02:40 2.2 65 3.67 -3.7 32 50 997.7 0.2 9.4 20.6 24.6 64.0 44.6 148.4
06/09 02:30 2 68 3.78 -3.3 33 48 997.7 0.2 9.7 20.8 25.1 65.3 46.1 153.6
06/09 02:20 2.1 68 3.81 -3.2 32 50 997.6 0.2 9.7 20.8 25.2 65.5 46.4 154.7
06/09 02:10 2.1 68 3.81 -3.2 35 52 997.4 0.2 9.7 20.8 25.2 65.5 46.4 154.7
06/09 02:00 2.1 66 3.7 -3.6 37 48 997.4 0.2 9.5 20.6 24.7 64.4 45.0 149.9
06/09 01:50 2.2 67 3.78 -3.3 35 48 997.4 0.2 9.7 20.7 25.0 65.1 46.0 153.2
06/09 01:40 2.1 66 3.7 -3.6 37 50 997.3 0.2 9.5 20.6 24.7 64.3 45.0 149.8
06/09 01:30 2 66 3.67 -3.7 37 50 997.2 0.2 9.4 20.6 24.7 64.1 44.7 148.7

Last Refresh: 06-Sep-2026 17:39:16

Bureau of Meteorology